createdAt,value
2022-07-30T00:01:35.948Z,8.00
2022-07-30T00:04:05.273Z,8.10
2022-07-30T00:06:34.056Z,8.70
2022-07-30T00:09:02.660Z,8.30
2022-07-30T00:11:31.107Z,7.80
2022-07-30T00:13:59.605Z,6.90
2022-07-30T00:16:28.970Z,7.50
2022-07-30T00:18:57.595Z,6.90
2022-07-30T00:21:36.286Z,6.60
2022-07-30T00:24:08.907Z,6.10
2022-07-30T00:26:37.686Z,5.40
2022-07-30T00:29:07.035Z,5.20
2022-07-30T00:31:36.189Z,4.80
2022-07-30T00:34:05.183Z,5.00
2022-07-30T00:36:33.668Z,4.60
2022-07-30T00:39:02.680Z,4.60
2022-07-30T00:41:31.243Z,4.80
2022-07-30T00:43:59.932Z,4.60
2022-07-30T00:46:29.129Z,4.70
2022-07-30T00:48:57.875Z,4.20
2022-07-30T00:51:26.407Z,4.70
2022-07-30T00:53:55.090Z,4.90
2022-07-30T00:56:23.881Z,4.60
2022-07-30T00:58:52.360Z,4.40
2022-07-30T01:01:21.635Z,4.20
2022-07-30T01:03:50.555Z,4.60
2022-07-30T01:06:19.344Z,4.70
2022-07-30T01:08:47.826Z,5.00
2022-07-30T01:11:17.051Z,4.90
2022-07-30T01:13:46.125Z,4.50
2022-07-30T01:16:15.399Z,5.80
2022-07-30T01:19:05.106Z,7.30
2022-07-30T01:21:40.037Z,8.40
2022-07-30T01:24:24.496Z,8.50
2022-07-30T01:26:54.596Z,8.30
2022-07-30T01:29:25.341Z,7.30
2022-07-30T01:32:00.460Z,7.00
2022-07-30T01:34:36.755Z,6.10
2022-07-30T01:37:09.354Z,6.10
2022-07-30T01:39:40.052Z,5.30
2022-07-30T01:42:12.345Z,5.50
2022-07-30T01:44:42.849Z,5.70
2022-07-30T01:47:13.223Z,5.50
2022-07-30T01:49:43.483Z,5.20
2022-07-30T01:52:12.627Z,5.30
2022-07-30T01:54:44.483Z,5.70
2022-07-30T01:57:16.034Z,5.30
2022-07-30T01:59:48.138Z,5.30
2022-07-30T02:02:18.248Z,5.10
2022-07-30T02:04:48.036Z,5.60
2022-07-30T02:07:34.490Z,5.60
2022-07-30T02:10:19.717Z,5.60
2022-07-30T02:12:56.595Z,5.70
2022-07-30T02:15:33.055Z,5.80
2022-07-30T02:18:08.315Z,5.70
2022-07-30T02:20:38.491Z,5.80
2022-07-30T02:23:11.687Z,5.60
2022-07-30T02:25:46.896Z,6.10
2022-07-30T02:28:17.554Z,5.90
2022-07-30T02:30:55.358Z,5.40
2022-07-30T02:33:27.867Z,6.00
2022-07-30T02:35:58.849Z,5.50
2022-07-30T02:38:30.265Z,5.80
2022-07-30T02:41:02.045Z,5.90
2022-07-30T02:43:35.537Z,6.40
2022-07-30T02:46:07.631Z,5.90
2022-07-30T02:49:11.163Z,6.10
2022-07-30T02:51:41.642Z,6.00
2022-07-30T02:54:12.614Z,6.10
2022-07-30T02:56:42.796Z,5.70
2022-07-30T02:59:12.910Z,5.90
2022-07-30T03:01:44.330Z,6.60
2022-07-30T03:04:14.336Z,5.90
2022-07-30T03:06:45.834Z,6.60
2022-07-30T03:09:17.055Z,6.10
2022-07-30T03:11:47.976Z,6.70
2022-07-30T03:14:16.715Z,6.80
2022-07-30T03:16:51.182Z,6.80
2022-07-30T03:19:23.181Z,6.70
2022-07-30T03:21:55.773Z,6.70
2022-07-30T03:24:25.996Z,6.50
2022-07-30T03:26:57.307Z,6.30
2022-07-30T03:29:28.148Z,6.20
2022-07-30T03:31:58.283Z,7.00
2022-07-30T03:34:29.825Z,6.80
2022-07-30T03:36:59.554Z,6.50
2022-07-30T03:39:29.758Z,6.80
2022-07-30T03:41:58.584Z,6.30
2022-07-30T03:44:27.886Z,6.50
2022-07-30T03:46:58.284Z,6.50
2022-07-30T03:49:28.433Z,6.60
2022-07-30T03:51:57.841Z,6.20
2022-07-30T03:54:27.863Z,6.50
2022-07-30T03:57:17.619Z,6.50
2022-07-30T03:59:51.912Z,6.50
2022-07-30T04:02:21.570Z,7.00
2022-07-30T04:05:04.320Z,7.20
2022-07-30T04:07:33.281Z,6.90
2022-07-30T04:10:02.379Z,6.50
2022-07-30T04:12:51.441Z,6.70
2022-07-30T04:16:05.111Z,6.90
2022-07-30T04:18:12.020Z,6.50
2022-07-30T04:20:42.083Z,6.80
2022-07-30T04:23:12.464Z,6.20
2022-07-30T04:25:43.780Z,7.40
2022-07-30T04:28:14.349Z,7.10
2022-07-30T04:30:43.283Z,9.00
2022-07-30T04:33:11.971Z,9.10
2022-07-30T04:35:51.036Z,12.40
2022-07-30T04:38:34.841Z,10.70
2022-07-30T04:41:03.853Z,10.70
2022-07-30T04:43:41.328Z,9.00
2022-07-30T04:46:10.453Z,10.10
2022-07-30T04:48:39.153Z,7.40
2022-07-30T04:51:23.605Z,6.80
2022-07-30T04:53:55.123Z,7.30
2022-07-30T04:56:26.101Z,7.10
2022-07-30T04:58:56.597Z,8.20
2022-07-30T05:01:37.175Z,7.70
2022-07-30T05:04:11.773Z,7.80
2022-07-30T05:09:15.103Z,8.00
2022-07-30T05:11:53.822Z,7.80
2022-07-30T05:14:23.613Z,7.10
2022-07-30T05:16:53.718Z,6.90
2022-07-30T05:19:24.086Z,7.80
2022-07-30T05:21:53.009Z,7.80
2022-07-30T05:24:22.484Z,6.50
2022-07-30T05:26:58.052Z,7.30
2022-07-30T05:29:27.641Z,6.40
2022-07-30T05:32:03.330Z,6.80
2022-07-30T05:34:33.926Z,6.90
2022-07-30T05:37:02.832Z,6.50
2022-07-30T05:39:33.061Z,6.30
2022-07-30T05:42:20.877Z,6.20
2022-07-30T05:44:52.841Z,6.60
2022-07-30T05:47:22.735Z,6.30
2022-07-30T05:49:53.699Z,6.80
2022-07-30T05:52:22.227Z,5.80
2022-07-30T05:54:50.766Z,6.20
2022-07-30T05:57:38.808Z,6.20
2022-07-30T06:00:08.069Z,6.40
2022-07-30T06:02:46.115Z,6.30
2022-07-30T06:05:27.402Z,6.30
2022-07-30T06:07:58.237Z,5.90
2022-07-30T06:10:27.539Z,6.00
2022-07-30T06:12:56.123Z,4.90
2022-07-30T06:15:26.284Z,5.30
2022-07-30T06:18:01.397Z,5.50
2022-07-30T06:20:52.447Z,5.40
2022-07-30T06:23:27.636Z,5.00
2022-07-30T06:26:22.436Z,5.00
2022-07-30T06:28:51.327Z,4.90
2022-07-30T06:31:28.330Z,4.70
2022-07-30T06:33:57.099Z,5.40
2022-07-30T06:36:27.017Z,4.90
2022-07-30T06:39:08.311Z,5.10
2022-07-30T06:41:59.416Z,4.40
2022-07-30T06:44:44.589Z,4.50
2022-07-30T06:47:29.699Z,5.30
2022-07-30T06:50:01.377Z,4.80
2022-07-30T06:52:30.311Z,4.90
2022-07-30T06:54:59.512Z,5.90
2022-07-30T06:57:37.557Z,4.90
2022-07-30T07:00:16.238Z,4.40
2022-07-30T07:02:48.001Z,5.60
2022-07-30T07:05:21.603Z,5.20
2022-07-30T07:07:58.670Z,5.00
2022-07-30T07:10:30.855Z,5.10
2022-07-30T07:13:15.445Z,6.00
2022-07-30T07:15:44.309Z,5.40
2022-07-30T07:18:16.898Z,6.20
2022-07-30T07:20:52.332Z,5.30
2022-07-30T07:23:21.019Z,4.80
2022-07-30T07:25:51.245Z,5.10
2022-07-30T07:28:20.193Z,5.00
2022-07-30T07:30:49.411Z,5.50
2022-07-30T07:33:18.738Z,5.50
2022-07-30T07:35:49.423Z,4.80
2022-07-30T07:38:31.371Z,4.70
2022-07-30T07:41:00.674Z,5.00
2022-07-30T07:43:29.982Z,4.90
2022-07-30T07:46:00.294Z,4.60
2022-07-30T07:48:31.753Z,4.70
2022-07-30T07:51:11.401Z,4.90
2022-07-30T07:53:40.012Z,4.90
2022-07-30T07:56:08.978Z,5.00
2022-07-30T07:58:38.255Z,4.70
2022-07-30T08:01:10.591Z,4.80
2022-07-30T08:04:10.151Z,4.50
2022-07-30T08:06:58.633Z,4.80
2022-07-30T08:09:46.658Z,4.40
2022-07-30T08:12:38.353Z,4.40
2022-07-30T08:15:26.015Z,4.30
2022-07-30T08:17:54.909Z,4.10
2022-07-30T08:20:43.873Z,4.10
2022-07-30T08:23:13.618Z,3.80
2022-07-30T08:25:42.168Z,4.20
2022-07-30T08:28:35.160Z,4.10
2022-07-30T08:31:02.143Z,4.00
2022-07-30T08:33:31.886Z,4.80
2022-07-30T08:36:09.119Z,4.00
2022-07-30T08:38:39.614Z,4.00
2022-07-30T08:41:09.007Z,4.00
2022-07-30T08:43:37.748Z,5.50
2022-07-30T08:46:10.813Z,4.20
2022-07-30T08:48:57.365Z,4.10
2022-07-30T08:51:26.808Z,3.80
2022-07-30T08:54:14.385Z,3.90
2022-07-30T08:56:43.744Z,3.90
2022-07-30T08:59:12.833Z,4.00
2022-07-30T09:01:41.416Z,3.50
2022-07-30T09:04:10.225Z,3.50
2022-07-30T09:06:41.158Z,3.60
2022-07-30T09:09:12.187Z,5.20
2022-07-30T09:11:42.613Z,3.70
2022-07-30T09:14:13.859Z,3.80
2022-07-30T09:16:45.172Z,3.90
2022-07-30T09:19:20.172Z,4.00
2022-07-30T09:22:00.186Z,3.60
2022-07-30T09:25:04.936Z,3.60
2022-07-30T09:28:16.450Z,3.90
2022-07-30T09:31:11.431Z,3.50
2022-07-30T09:33:58.548Z,4.00
2022-07-30T09:36:46.588Z,3.70
2022-07-30T09:39:39.381Z,3.70
2022-07-30T09:42:29.031Z,3.50
2022-07-30T09:45:26.080Z,3.60
2022-07-30T09:48:20.674Z,3.60
2022-07-30T09:50:50.545Z,3.90
2022-07-30T09:53:22.756Z,3.80
2022-07-30T09:55:51.988Z,3.90
2022-07-30T09:58:27.400Z,3.90
2022-07-30T10:01:01.416Z,3.90
2022-07-30T10:03:53.142Z,3.40
2022-07-30T10:06:48.370Z,3.70
2022-07-30T10:09:33.627Z,4.50
2022-07-30T10:12:10.488Z,4.50
2022-07-30T10:14:45.648Z,4.20
2022-07-30T10:17:17.361Z,3.90
2022-07-30T10:20:09.075Z,3.70
2022-07-30T10:22:56.726Z,4.10
2022-07-30T10:25:27.869Z,4.20
2022-07-30T10:28:16.561Z,3.70
2022-07-30T10:30:45.769Z,3.80
2022-07-30T10:33:34.739Z,3.40
2022-07-30T10:36:04.271Z,3.80
2022-07-30T10:38:41.130Z,3.90
2022-07-30T10:41:54.284Z,3.80
2022-07-30T10:44:59.079Z,4.90
2022-07-30T10:47:33.447Z,4.50
2022-07-30T10:50:07.908Z,4.00
2022-07-30T10:52:44.294Z,3.70
2022-07-30T10:55:15.767Z,3.70
2022-07-30T10:58:06.371Z,4.00
2022-07-30T11:00:56.736Z,4.10
2022-07-30T11:03:41.250Z,4.00
2022-07-30T11:06:16.441Z,3.60
2022-07-30T11:08:57.346Z,3.90
2022-07-30T11:12:01.978Z,3.30
2022-07-30T11:14:20.531Z,3.90
2022-07-30T11:16:51.639Z,3.70
2022-07-30T11:19:56.746Z,3.80
2022-07-30T11:22:29.883Z,3.80
2022-07-30T11:24:58.867Z,4.10
2022-07-30T11:27:50.698Z,3.90
2022-07-30T11:30:23.471Z,3.80
2022-07-30T11:32:54.074Z,3.80
2022-07-30T11:35:35.122Z,3.90
2022-07-30T11:38:09.920Z,3.40
2022-07-30T11:41:03.290Z,4.10
2022-07-30T11:43:37.092Z,4.60
2022-07-30T11:46:29.709Z,4.60
2022-07-30T11:49:08.972Z,3.90
2022-07-30T11:51:46.065Z,3.60
2022-07-30T11:54:15.367Z,3.60
2022-07-30T11:56:51.221Z,3.60
2022-07-30T11:59:20.168Z,3.50
2022-07-30T12:01:54.083Z,3.50
2022-07-30T12:04:24.650Z,4.80
2022-07-30T12:06:53.550Z,4.00
2022-07-30T12:09:27.547Z,3.20
2022-07-30T12:11:58.193Z,3.10
2022-07-30T12:14:36.711Z,3.50
2022-07-30T12:17:05.695Z,3.60
2022-07-30T12:19:47.509Z,3.60
2022-07-30T12:22:17.317Z,3.60
2022-07-30T12:24:45.900Z,4.10
2022-07-30T12:27:14.587Z,4.10
2022-07-30T12:29:43.071Z,5.80
2022-07-30T12:32:11.658Z,4.00
2022-07-30T12:34:40.195Z,4.10
2022-07-30T12:37:10.565Z,4.30
2022-07-30T12:39:40.415Z,3.70
2022-07-30T12:42:19.225Z,3.50
2022-07-30T12:44:49.591Z,3.40
2022-07-30T12:47:29.893Z,4.00
2022-07-30T12:52:35.584Z,4.00
2022-07-30T12:55:12.705Z,4.10
2022-07-30T12:57:59.334Z,4.10
2022-07-30T13:00:32.211Z,3.70
2022-07-30T13:03:00.930Z,5.20
2022-07-30T13:05:50.576Z,4.00
2022-07-30T13:08:19.093Z,3.60
2022-07-30T13:11:02.115Z,4.60
2022-07-30T13:13:33.038Z,3.40
2022-07-30T13:16:04.099Z,3.80
2022-07-30T13:18:34.247Z,3.90
2022-07-30T13:21:04.625Z,4.00
2022-07-30T13:23:33.132Z,3.80
2022-07-30T13:26:02.331Z,4.00
2022-07-30T13:28:32.441Z,4.10
2022-07-30T13:31:02.474Z,4.00
2022-07-30T13:33:31.327Z,3.60
2022-07-30T13:35:59.845Z,4.00
2022-07-30T13:38:28.743Z,4.00
2022-07-30T13:41:02.208Z,3.80
2022-07-30T13:43:33.754Z,3.80
2022-07-30T13:46:04.937Z,4.10
2022-07-30T13:48:34.037Z,3.90
2022-07-30T13:51:03.865Z,4.00
2022-07-30T13:53:32.746Z,4.00
2022-07-30T13:56:01.429Z,3.90
2022-07-30T13:58:35.498Z,3.80
2022-07-30T14:01:07.523Z,3.70
2022-07-30T14:03:36.301Z,4.30
2022-07-30T14:06:10.645Z,4.10
2022-07-30T14:08:40.334Z,8.10
2022-07-30T14:11:08.916Z,4.00
2022-07-30T14:13:38.108Z,4.10
2022-07-30T14:16:22.583Z,4.30
2022-07-30T14:18:57.768Z,4.40
2022-07-30T14:21:26.660Z,4.60
2022-07-30T14:23:55.603Z,13.30
2022-07-30T14:26:24.081Z,4.90
2022-07-30T14:28:52.665Z,7.20
2022-07-30T14:31:21.228Z,6.10
2022-07-30T14:33:49.628Z,5.40
2022-07-30T14:36:18.726Z,4.40
2022-07-30T14:38:47.414Z,4.20
2022-07-30T14:41:15.898Z,4.50
2022-07-30T14:43:44.684Z,4.30
2022-07-30T14:46:13.471Z,7.60
2022-07-30T14:48:42.443Z,4.60
2022-07-30T14:51:17.739Z,4.80
2022-07-30T14:53:50.878Z,5.00
2022-07-30T14:56:19.785Z,6.60
2022-07-30T14:58:48.278Z,6.30
2022-07-30T15:01:17.267Z,5.20
2022-07-30T15:03:46.805Z,5.40
2022-07-30T15:06:15.986Z,5.30
2022-07-30T15:08:46.242Z,5.00
2022-07-30T15:11:15.257Z,5.30
2022-07-30T15:13:50.470Z,4.70
2022-07-30T15:16:20.282Z,4.50
2022-07-30T15:18:48.797Z,4.30
2022-07-30T15:21:17.834Z,4.80
2022-07-30T15:23:46.421Z,4.40
2022-07-30T15:26:15.003Z,4.30
2022-07-30T15:28:43.690Z,4.40
2022-07-30T15:31:12.380Z,4.50
2022-07-30T15:33:43.314Z,4.80
2022-07-30T15:36:12.372Z,4.10
2022-07-30T15:38:41.206Z,4.90
2022-07-30T15:41:13.507Z,4.70
2022-07-30T15:43:42.793Z,5.00
2022-07-30T15:46:11.365Z,4.60
2022-07-30T15:48:39.918Z,4.70
2022-07-30T15:51:10.912Z,4.80
2022-07-30T15:53:39.539Z,4.20
2022-07-30T15:56:08.467Z,4.90
2022-07-30T15:58:41.645Z,5.70
2022-07-30T16:01:12.263Z,6.00
2022-07-30T16:03:41.087Z,5.70
2022-07-30T16:06:09.671Z,4.30
2022-07-30T16:08:38.259Z,4.50
2022-07-30T16:11:07.248Z,4.20
2022-07-30T16:13:39.520Z,4.60
2022-07-30T16:16:08.412Z,4.40
2022-07-30T16:18:36.854Z,4.70
2022-07-30T16:21:06.402Z,4.30
2022-07-30T16:23:36.962Z,4.40
2022-07-30T16:26:07.873Z,4.50
2022-07-30T16:28:36.663Z,4.80
2022-07-30T16:31:05.147Z,4.90
2022-07-30T16:33:33.732Z,4.60
2022-07-30T16:36:02.417Z,4.70
2022-07-30T16:38:31.783Z,4.80
2022-07-30T16:41:00.310Z,5.20
2022-07-30T16:43:28.782Z,4.30
2022-07-30T16:45:57.679Z,4.70
2022-07-30T16:48:26.864Z,4.70
2022-07-30T16:50:55.669Z,4.40
2022-07-30T16:53:24.458Z,4.70
2022-07-30T16:55:53.249Z,4.30
2022-07-30T16:58:21.712Z,4.80
2022-07-30T17:00:57.005Z,5.00
2022-07-30T17:03:26.477Z,4.70
2022-07-30T17:05:55.334Z,4.60
2022-07-30T17:08:25.130Z,4.70
2022-07-30T17:10:54.792Z,4.40
2022-07-30T17:13:26.041Z,4.80
2022-07-30T17:15:54.996Z,4.50
2022-07-30T17:19:23.524Z,5.10
2022-07-30T17:25:44.766Z,4.80
2022-07-30T17:28:13.769Z,5.00
2022-07-30T17:30:42.350Z,4.50
2022-07-30T17:33:11.452Z,4.30
2022-07-30T17:35:40.237Z,5.10
2022-07-30T17:38:08.716Z,4.60
2022-07-30T17:40:37.303Z,4.60
2022-07-30T17:43:07.927Z,4.60
2022-07-30T17:45:37.612Z,4.50
2022-07-30T17:48:06.972Z,4.50
2022-07-30T17:50:36.252Z,4.20
2022-07-30T17:53:06.235Z,4.60
2022-07-30T17:55:35.667Z,4.50
2022-07-30T17:58:05.237Z,4.50
2022-07-30T18:00:35.641Z,5.10
2022-07-30T18:03:04.654Z,4.40
2022-07-30T18:05:50.472Z,4.70
2022-07-30T18:08:19.199Z,4.30
2022-07-30T18:10:48.032Z,4.40
2022-07-30T18:13:26.672Z,4.70
2022-07-30T18:15:56.490Z,4.80
2022-07-30T18:18:25.092Z,4.40
2022-07-30T18:20:53.780Z,4.70
2022-07-30T18:23:22.791Z,4.30
2022-07-30T18:25:54.238Z,4.70
2022-07-30T18:29:23.231Z,5.00
2022-07-30T18:32:31.552Z,4.60
2022-07-30T18:35:00.438Z,4.60
2022-07-30T18:37:41.290Z,4.40
2022-07-30T18:40:13.690Z,4.80
2022-07-30T18:42:42.740Z,4.40
2022-07-30T18:45:15.812Z,4.90
2022-07-30T18:47:45.341Z,4.70
2022-07-30T18:50:15.956Z,5.40
2022-07-30T18:52:45.489Z,4.80
2022-07-30T18:55:14.382Z,4.90
2022-07-30T18:57:43.511Z,5.30
2022-07-30T19:00:34.497Z,5.50
2022-07-30T19:03:03.677Z,5.00
2022-07-30T19:05:32.310Z,5.00
2022-07-30T19:08:00.892Z,5.00
2022-07-30T19:10:29.783Z,5.60
2022-07-30T19:12:58.582Z,5.10
2022-07-30T19:15:27.263Z,4.90
2022-07-30T19:17:57.221Z,5.20
2022-07-30T19:20:26.792Z,5.50
2022-07-30T19:23:07.351Z,5.30
2022-07-30T19:25:37.291Z,5.10
2022-07-30T19:28:06.058Z,4.80
2022-07-30T19:30:35.053Z,5.30
2022-07-30T19:33:14.745Z,5.30
2022-07-30T19:35:44.737Z,5.30
2022-07-30T19:38:21.367Z,4.60
2022-07-30T19:40:50.802Z,5.30
2022-07-30T19:43:24.002Z,5.20
2022-07-30T19:45:53.386Z,4.80
2022-07-30T19:48:29.203Z,5.50
2022-07-30T19:51:01.512Z,5.20
2022-07-30T19:53:34.438Z,6.10
2022-07-30T19:56:08.275Z,5.30
2022-07-30T19:58:40.216Z,5.40
2022-07-30T20:01:11.527Z,5.30
2022-07-30T20:03:41.180Z,5.30
2022-07-30T20:06:18.609Z,5.90
2022-07-30T20:08:49.982Z,5.70
2022-07-30T20:11:36.375Z,5.50
2022-07-30T20:14:05.641Z,5.50
2022-07-30T20:16:36.008Z,5.40
2022-07-30T20:19:05.823Z,5.30
2022-07-30T20:21:57.549Z,5.20
2022-07-30T20:24:25.618Z,5.30
2022-07-30T20:26:54.311Z,5.00
2022-07-30T20:29:24.019Z,5.60
2022-07-30T20:31:53.998Z,5.10
2022-07-30T20:34:25.944Z,5.20
2022-07-30T20:36:56.791Z,5.00
2022-07-30T20:39:26.348Z,5.60
2022-07-30T20:42:15.006Z,5.60
2022-07-30T20:44:50.697Z,6.30
2022-07-30T20:47:38.227Z,5.80
2022-07-30T20:50:10.083Z,5.80
2022-07-30T20:52:40.688Z,5.90
2022-07-30T20:55:14.426Z,5.90
2022-07-30T20:58:00.440Z,6.00
2022-07-30T21:00:35.021Z,6.00
2022-07-30T21:03:04.887Z,6.10
2022-07-30T21:05:36.063Z,5.90
2022-07-30T21:08:05.497Z,5.30
2022-07-30T21:10:36.623Z,5.70
2022-07-30T21:13:07.632Z,5.90
2022-07-30T21:15:36.811Z,6.00
2022-07-30T21:18:14.554Z,5.70
2022-07-30T21:20:46.021Z,5.70
2022-07-30T21:23:22.642Z,5.50
2022-07-30T21:26:00.669Z,8.30
2022-07-30T21:28:35.369Z,6.70
2022-07-30T21:31:06.930Z,7.10
2022-07-30T21:33:39.857Z,7.00
2022-07-30T21:36:10.530Z,6.00
2022-07-30T21:41:14.084Z,5.70
2022-07-30T21:43:44.957Z,6.40
2022-07-30T21:46:14.823Z,6.30
2022-07-30T21:48:43.682Z,5.60
2022-07-30T21:51:13.741Z,5.40
2022-07-30T21:53:45.169Z,5.90
2022-07-30T21:56:16.214Z,5.80
2022-07-30T21:58:45.471Z,5.40
2022-07-30T22:01:22.462Z,5.80
2022-07-30T22:04:02.796Z,5.30
2022-07-30T22:06:42.893Z,5.90
2022-07-30T22:09:19.062Z,5.90
2022-07-30T22:12:09.233Z,5.20
2022-07-30T22:14:39.548Z,5.40
2022-07-30T22:17:22.389Z,5.30
2022-07-30T22:19:52.226Z,5.30
2022-07-30T22:22:27.041Z,5.20
2022-07-30T22:24:58.160Z,5.70
2022-07-30T22:27:39.506Z,5.80
2022-07-30T22:30:10.240Z,5.80
2022-07-30T22:32:43.594Z,5.20
2022-07-30T22:35:16.375Z,5.50
2022-07-30T22:37:46.167Z,5.50
2022-07-30T22:40:16.493Z,5.60
2022-07-30T22:42:46.801Z,5.50
2022-07-30T22:45:34.108Z,5.40
2022-07-30T22:48:10.812Z,5.40
2022-07-30T22:50:40.775Z,5.70
2022-07-30T22:53:56.659Z,5.50
2022-07-30T22:55:59.416Z,5.70
2022-07-30T22:58:29.626Z,5.40
2022-07-30T23:00:58.216Z,4.90
2022-07-30T23:03:26.801Z,5.50
2022-07-30T23:05:57.179Z,4.70
2022-07-30T23:08:29.468Z,5.70
2022-07-30T23:11:02.491Z,5.60
2022-07-30T23:13:31.074Z,5.30
2022-07-30T23:15:59.657Z,5.70
2022-07-30T23:18:29.165Z,6.20
2022-07-30T23:21:00.441Z,5.90
2022-07-30T23:23:34.069Z,5.40
2022-07-30T23:26:04.963Z,5.70
2022-07-30T23:28:34.051Z,5.80
2022-07-30T23:31:03.825Z,6.20
2022-07-30T23:33:33.268Z,5.50
2022-07-30T23:36:05.949Z,5.50
2022-07-30T23:38:34.907Z,6.20
2022-07-30T23:41:04.624Z,5.50
2022-07-30T23:43:36.681Z,5.00
2022-07-30T23:46:05.307Z,5.30
2022-07-30T23:48:40.038Z,5.60
2022-07-30T23:51:08.660Z,5.00
2022-07-30T23:53:37.248Z,5.50
2022-07-30T23:56:05.867Z,4.80
2022-07-30T23:58:34.682Z,4.90
